sensor_id;sensor_type;location;lat;lon;timestamp;P1;durP1;ratioP1;P2;durP2;ratioP2
30147;SDS011;16960;49.404;8.248;2024-02-26T00:02:08;3.10;;;1.93;;
30147;SDS011;16960;49.404;8.248;2024-02-26T00:04:36;1.63;;;1.53;;
30147;SDS011;16960;49.404;8.248;2024-02-26T00:07:03;1.60;;;1.50;;
30147;SDS011;16960;49.404;8.248;2024-02-26T00:09:30;2.87;;;1.60;;
30147;SDS011;16960;49.404;8.248;2024-02-26T00:11:58;1.90;;;1.80;;
30147;SDS011;16960;49.404;8.248;2024-02-26T00:14:24;1.50;;;1.40;;
30147;SDS011;16960;49.404;8.248;2024-02-26T00:16:51;2.27;;;2.07;;
30147;SDS011;16960;49.404;8.248;2024-02-26T00:19:18;2.10;;;1.90;;
30147;SDS011;16960;49.404;8.248;2024-02-26T00:21:46;2.07;;;1.87;;
30147;SDS011;16960;49.404;8.248;2024-02-26T00:24:14;1.80;;;1.70;;
30147;SDS011;16960;49.404;8.248;2024-02-26T00:26:40;1.63;;;1.53;;
30147;SDS011;16960;49.404;8.248;2024-02-26T00:29:07;1.80;;;1.70;;
30147;SDS011;16960;49.404;8.248;2024-02-26T00:31:34;1.97;;;1.70;;
30147;SDS011;16960;49.404;8.248;2024-02-26T00:34:03;1.50;;;1.40;;
30147;SDS011;16960;49.404;8.248;2024-02-26T00:36:30;4.43;;;1.70;;
30147;SDS011;16960;49.404;8.248;2024-02-26T00:38:58;1.53;;;1.33;;
30147;SDS011;16960;49.404;8.248;2024-02-26T00:41:25;2.17;;;1.87;;
30147;SDS011;16960;49.404;8.248;2024-02-26T00:43:52;1.80;;;1.70;;
30147;SDS011;16960;49.404;8.248;2024-02-26T00:46:19;1.87;;;1.77;;
30147;SDS011;16960;49.404;8.248;2024-02-26T00:48:45;1.80;;;1.70;;
30147;SDS011;16960;49.404;8.248;2024-02-26T00:51:12;1.60;;;1.50;;
30147;SDS011;16960;49.404;8.248;2024-02-26T00:53:40;1.97;;;1.73;;
30147;SDS011;16960;49.404;8.248;2024-02-26T00:56:08;1.67;;;1.57;;
30147;SDS011;16960;49.404;8.248;2024-02-26T00:58:35;1.57;;;1.47;;
30147;SDS011;16960;49.404;8.248;2024-02-26T01:01:02;1.97;;;1.70;;
30147;SDS011;16960;49.404;8.248;2024-02-26T01:03:29;1.90;;;1.70;;
30147;SDS011;16960;49.404;8.248;2024-02-26T01:05:56;2.30;;;1.97;;
30147;SDS011;16960;49.404;8.248;2024-02-26T01:08:23;1.93;;;1.70;;
30147;SDS011;16960;49.404;8.248;2024-02-26T01:10:50;1.67;;;1.57;;
30147;SDS011;16960;49.404;8.248;2024-02-26T01:13:18;5.40;;;1.97;;
30147;SDS011;16960;49.404;8.248;2024-02-26T01:15:45;2.10;;;1.43;;
30147;SDS011;16960;49.404;8.248;2024-02-26T01:18:12;2.93;;;1.77;;
30147;SDS011;16960;49.404;8.248;2024-02-26T01:20:39;1.43;;;1.33;;
30147;SDS011;16960;49.404;8.248;2024-02-26T01:23:06;2.30;;;1.67;;
30147;SDS011;16960;49.404;8.248;2024-02-26T01:25:33;1.97;;;1.77;;
30147;SDS011;16960;49.404;8.248;2024-02-26T01:28:00;2.20;;;2.00;;
30147;SDS011;16960;49.404;8.248;2024-02-26T01:30:28;1.50;;;1.40;;
30147;SDS011;16960;49.404;8.248;2024-02-26T01:32:55;1.67;;;1.57;;
30147;SDS011;16960;49.404;8.248;2024-02-26T01:35:22;1.90;;;1.40;;
30147;SDS011;16960;49.404;8.248;2024-02-26T01:37:48;1.57;;;1.47;;
30147;SDS011;16960;49.404;8.248;2024-02-26T01:40:15;2.17;;;1.80;;
30147;SDS011;16960;49.404;8.248;2024-02-26T01:42:45;1.60;;;1.43;;
30147;SDS011;16960;49.404;8.248;2024-02-26T01:45:13;3.17;;;1.50;;
30147;SDS011;16960;49.404;8.248;2024-02-26T01:47:48;1.80;;;1.70;;
30147;SDS011;16960;49.404;8.248;2024-02-26T01:50:16;2.03;;;1.83;;
30147;SDS011;16960;49.404;8.248;2024-02-26T01:52:43;2.00;;;1.60;;
30147;SDS011;16960;49.404;8.248;2024-02-26T01:55:11;1.50;;;1.40;;
30147;SDS011;16960;49.404;8.248;2024-02-26T01:57:39;1.73;;;1.63;;
30147;SDS011;16960;49.404;8.248;2024-02-26T02:00:07;4.53;;;2.00;;
30147;SDS011;16960;49.404;8.248;2024-02-26T02:02:35;1.50;;;1.40;;
30147;SDS011;16960;49.404;8.248;2024-02-26T02:05:05;1.63;;;1.50;;
30147;SDS011;16960;49.404;8.248;2024-02-26T02:07:34;2.90;;;2.00;;
30147;SDS011;16960;49.404;8.248;2024-02-26T02:10:02;1.70;;;1.40;;
30147;SDS011;16960;49.404;8.248;2024-02-26T02:12:31;1.90;;;1.70;;
30147;SDS011;16960;49.404;8.248;2024-02-26T02:14:59;1.83;;;1.47;;
30147;SDS011;16960;49.404;8.248;2024-02-26T02:17:27;1.80;;;1.70;;
30147;SDS011;16960;49.404;8.248;2024-02-26T02:19:54;2.00;;;1.80;;
30147;SDS011;16960;49.404;8.248;2024-02-26T02:22:22;1.40;;;1.30;;
30147;SDS011;16960;49.404;8.248;2024-02-26T02:24:50;1.47;;;1.30;;
30147;SDS011;16960;49.404;8.248;2024-02-26T02:27:18;2.47;;;1.60;;
30147;SDS011;16960;49.404;8.248;2024-02-26T02:29:45;1.53;;;1.43;;
30147;SDS011;16960;49.404;8.248;2024-02-26T02:32:13;1.50;;;1.40;;
30147;SDS011;16960;49.404;8.248;2024-02-26T02:34:42;1.60;;;1.50;;
30147;SDS011;16960;49.404;8.248;2024-02-26T02:37:09;1.40;;;1.30;;
30147;SDS011;16960;49.404;8.248;2024-02-26T02:39:37;1.50;;;1.37;;
30147;SDS011;16960;49.404;8.248;2024-02-26T02:42:04;1.50;;;1.40;;
30147;SDS011;16960;49.404;8.248;2024-02-26T02:44:31;1.37;;;1.27;;
30147;SDS011;16960;49.404;8.248;2024-02-26T02:46:58;1.30;;;1.20;;
30147;SDS011;16960;49.404;8.248;2024-02-26T02:49:25;1.50;;;1.40;;
30147;SDS011;16960;49.404;8.248;2024-02-26T02:51:52;2.20;;;1.40;;
30147;SDS011;16960;49.404;8.248;2024-02-26T02:54:19;1.73;;;1.63;;
30147;SDS011;16960;49.404;8.248;2024-02-26T02:56:48;1.50;;;1.40;;
30147;SDS011;16960;49.404;8.248;2024-02-26T02:59:14;1.40;;;1.30;;
30147;SDS011;16960;49.404;8.248;2024-02-26T03:01:41;1.70;;;1.53;;
30147;SDS011;16960;49.404;8.248;2024-02-26T03:04:09;1.33;;;1.10;;
30147;SDS011;16960;49.404;8.248;2024-02-26T03:06:35;1.23;;;1.13;;
30147;SDS011;16960;49.404;8.248;2024-02-26T03:09:02;1.20;;;1.03;;
30147;SDS011;16960;49.404;8.248;2024-02-26T03:11:29;1.60;;;1.47;;
30147;SDS011;16960;49.404;8.248;2024-02-26T03:13:58;1.50;;;1.30;;
30147;SDS011;16960;49.404;8.248;2024-02-26T03:16:25;1.30;;;1.17;;
30147;SDS011;16960;49.404;8.248;2024-02-26T03:18:51;1.40;;;1.30;;
30147;SDS011;16960;49.404;8.248;2024-02-26T03:21:18;1.23;;;1.13;;
30147;SDS011;16960;49.404;8.248;2024-02-26T03:23:45;1.50;;;1.40;;
30147;SDS011;16960;49.404;8.248;2024-02-26T03:26:12;1.30;;;1.20;;
30147;SDS011;16960;49.404;8.248;2024-02-26T03:28:39;1.43;;;1.20;;
30147;SDS011;16960;49.404;8.248;2024-02-26T03:31:08;1.80;;;1.40;;
30147;SDS011;16960;49.404;8.248;2024-02-26T03:33:35;2.70;;;1.23;;
30147;SDS011;16960;49.404;8.248;2024-02-26T03:36:03;1.33;;;1.23;;
30147;SDS011;16960;49.404;8.248;2024-02-26T03:38:30;1.07;;;0.97;;
30147;SDS011;16960;49.404;8.248;2024-02-26T03:40:57;1.30;;;1.20;;
30147;SDS011;16960;49.404;8.248;2024-02-26T03:43:24;1.50;;;1.40;;
30147;SDS011;16960;49.404;8.248;2024-02-26T03:45:51;1.37;;;1.27;;
30147;SDS011;16960;49.404;8.248;2024-02-26T03:48:19;1.30;;;1.20;;
30147;SDS011;16960;49.404;8.248;2024-02-26T03:50:46;1.70;;;1.50;;
30147;SDS011;16960;49.404;8.248;2024-02-26T03:53:13;1.40;;;1.30;;
30147;SDS011;16960;49.404;8.248;2024-02-26T03:55:40;1.20;;;1.00;;
30147;SDS011;16960;49.404;8.248;2024-02-26T03:58:07;1.30;;;1.20;;
30147;SDS011;16960;49.404;8.248;2024-02-26T04:00:34;1.40;;;1.20;;
30147;SDS011;16960;49.404;8.248;2024-02-26T04:03:01;1.07;;;1.00;;
30147;SDS011;16960;49.404;8.248;2024-02-26T04:05:30;1.33;;;1.13;;
30147;SDS011;16960;49.404;8.248;2024-02-26T04:07:57;1.70;;;1.40;;
30147;SDS011;16960;49.404;8.248;2024-02-26T04:10:24;1.37;;;1.27;;
30147;SDS011;16960;49.404;8.248;2024-02-26T04:12:51;1.03;;;0.93;;
30147;SDS011;16960;49.404;8.248;2024-02-26T04:15:17;1.20;;;1.00;;
30147;SDS011;16960;49.404;8.248;2024-02-26T04:17:44;1.67;;;1.40;;
30147;SDS011;16960;49.404;8.248;2024-02-26T04:20:13;1.27;;;0.97;;
30147;SDS011;16960;49.404;8.248;2024-02-26T04:22:43;1.10;;;0.90;;
30147;SDS011;16960;49.404;8.248;2024-02-26T04:25:11;0.80;;;0.80;;
30147;SDS011;16960;49.404;8.248;2024-02-26T04:27:38;1.60;;;1.33;;
30147;SDS011;16960;49.404;8.248;2024-02-26T04:30:05;2.33;;;1.30;;
30147;SDS011;16960;49.404;8.248;2024-02-26T04:32:33;1.90;;;1.30;;
30147;SDS011;16960;49.404;8.248;2024-02-26T04:35:00;1.23;;;1.13;;
30147;SDS011;16960;49.404;8.248;2024-02-26T04:37:27;1.20;;;1.10;;
30147;SDS011;16960;49.404;8.248;2024-02-26T04:39:58;0.80;;;0.80;;
30147;SDS011;16960;49.404;8.248;2024-02-26T04:42:25;1.30;;;1.20;;
30147;SDS011;16960;49.404;8.248;2024-02-26T04:44:52;1.30;;;1.20;;
30147;SDS011;16960;49.404;8.248;2024-02-26T04:47:19;1.03;;;0.93;;
30147;SDS011;16960;49.404;8.248;2024-02-26T04:49:47;1.40;;;1.30;;
30147;SDS011;16960;49.404;8.248;2024-02-26T04:52:14;1.00;;;1.00;;
30147;SDS011;16960;49.404;8.248;2024-02-26T04:54:41;1.10;;;1.00;;
30147;SDS011;16960;49.404;8.248;2024-02-26T04:57:09;1.20;;;1.10;;
30147;SDS011;16960;49.404;8.248;2024-02-26T04:59:36;1.00;;;0.90;;
30147;SDS011;16960;49.404;8.248;2024-02-26T05:02:03;1.20;;;1.10;;
30147;SDS011;16960;49.404;8.248;2024-02-26T05:04:30;2.10;;;1.07;;
30147;SDS011;16960;49.404;8.248;2024-02-26T05:06:57;1.40;;;1.10;;
30147;SDS011;16960;49.404;8.248;2024-02-26T05:09:24;1.30;;;1.20;;
30147;SDS011;16960;49.404;8.248;2024-02-26T05:11:51;1.13;;;1.03;;
30147;SDS011;16960;49.404;8.248;2024-02-26T05:14:19;1.30;;;1.10;;
30147;SDS011;16960;49.404;8.248;2024-02-26T05:16:46;1.30;;;1.20;;
30147;SDS011;16960;49.404;8.248;2024-02-26T05:19:13;1.43;;;1.00;;
30147;SDS011;16960;49.404;8.248;2024-02-26T05:21:40;1.60;;;1.20;;
30147;SDS011;16960;49.404;8.248;2024-02-26T05:24:09;1.00;;;0.90;;
30147;SDS011;16960;49.404;8.248;2024-02-26T05:26:36;1.20;;;1.10;;
30147;SDS011;16960;49.404;8.248;2024-02-26T05:29:03;0.90;;;0.90;;
30147;SDS011;16960;49.404;8.248;2024-02-26T05:31:31;1.10;;;1.00;;
30147;SDS011;16960;49.404;8.248;2024-02-26T05:33:58;1.20;;;1.10;;
30147;SDS011;16960;49.404;8.248;2024-02-26T05:36:25;1.47;;;1.27;;
30147;SDS011;16960;49.404;8.248;2024-02-26T05:38:53;1.20;;;1.10;;
30147;SDS011;16960;49.404;8.248;2024-02-26T05:41:20;1.40;;;1.30;;
30147;SDS011;16960;49.404;8.248;2024-02-26T05:43:51;1.47;;;1.30;;
30147;SDS011;16960;49.404;8.248;2024-02-26T05:46:18;1.40;;;1.27;;
30147;SDS011;16960;49.404;8.248;2024-02-26T05:48:47;1.20;;;1.10;;
30147;SDS011;16960;49.404;8.248;2024-02-26T05:51:14;1.73;;;1.10;;
30147;SDS011;16960;49.404;8.248;2024-02-26T05:53:41;1.37;;;1.00;;
30147;SDS011;16960;49.404;8.248;2024-02-26T05:56:08;1.43;;;1.00;;
30147;SDS011;16960;49.404;8.248;2024-02-26T05:58:35;1.10;;;1.00;;
30147;SDS011;16960;49.404;8.248;2024-02-26T06:01:03;0.97;;;0.97;;
30147;SDS011;16960;49.404;8.248;2024-02-26T06:03:30;1.43;;;0.97;;
30147;SDS011;16960;49.404;8.248;2024-02-26T06:05:59;0.80;;;0.80;;
30147;SDS011;16960;49.404;8.248;2024-02-26T06:08:26;1.00;;;0.90;;
30147;SDS011;16960;49.404;8.248;2024-02-26T06:10:52;1.80;;;1.37;;
30147;SDS011;16960;49.404;8.248;2024-02-26T06:13:19;1.40;;;1.30;;
30147;SDS011;16960;49.404;8.248;2024-02-26T06:15:46;0.90;;;0.90;;
30147;SDS011;16960;49.404;8.248;2024-02-26T06:18:13;1.00;;;0.97;;
30147;SDS011;16960;49.404;8.248;2024-02-26T06:20:41;1.27;;;1.13;;
30147;SDS011;16960;49.404;8.248;2024-02-26T06:23:09;1.13;;;1.03;;
30147;SDS011;16960;49.404;8.248;2024-02-26T06:25:36;1.57;;;1.10;;
30147;SDS011;16960;49.404;8.248;2024-02-26T06:28:03;1.20;;;1.10;;
30147;SDS011;16960;49.404;8.248;2024-02-26T06:30:30;1.17;;;1.07;;
30147;SDS011;16960;49.404;8.248;2024-02-26T06:32:57;1.10;;;1.00;;
30147;SDS011;16960;49.404;8.248;2024-02-26T06:35:24;1.27;;;1.10;;
30147;SDS011;16960;49.404;8.248;2024-02-26T06:37:51;1.70;;;1.60;;
30147;SDS011;16960;49.404;8.248;2024-02-26T06:40:19;1.60;;;1.50;;
30147;SDS011;16960;49.404;8.248;2024-02-26T06:42:46;1.43;;;1.33;;
30147;SDS011;16960;49.404;8.248;2024-02-26T06:45:15;2.03;;;1.83;;
30147;SDS011;16960;49.404;8.248;2024-02-26T06:47:42;1.80;;;1.70;;
30147;SDS011;16960;49.404;8.248;2024-02-26T06:50:11;4.53;;;1.60;;
30147;SDS011;16960;49.404;8.248;2024-02-26T06:52:38;2.17;;;1.97;;
30147;SDS011;16960;49.404;8.248;2024-02-26T06:55:05;2.20;;;1.93;;
30147;SDS011;16960;49.404;8.248;2024-02-26T06:57:34;2.10;;;1.90;;
30147;SDS011;16960;49.404;8.248;2024-02-26T07:00:02;1.90;;;1.70;;
30147;SDS011;16960;49.404;8.248;2024-02-26T07:02:30;2.23;;;1.77;;
30147;SDS011;16960;49.404;8.248;2024-02-26T07:04:57;1.67;;;1.53;;
30147;SDS011;16960;49.404;8.248;2024-02-26T07:07:24;3.67;;;1.93;;
30147;SDS011;16960;49.404;8.248;2024-02-26T07:09:51;4.97;;;1.97;;
30147;SDS011;16960;49.404;8.248;2024-02-26T07:12:17;2.50;;;2.00;;
30147;SDS011;16960;49.404;8.248;2024-02-26T07:14:47;3.63;;;1.57;;
30147;SDS011;16960;49.404;8.248;2024-02-26T07:17:15;2.60;;;2.00;;
30147;SDS011;16960;49.404;8.248;2024-02-26T07:19:42;3.33;;;2.33;;
30147;SDS011;16960;49.404;8.248;2024-02-26T07:22:09;2.03;;;1.90;;
30147;SDS011;16960;49.404;8.248;2024-02-26T07:24:36;2.07;;;1.77;;
30147;SDS011;16960;49.404;8.248;2024-02-26T07:27:03;2.73;;;1.90;;
30147;SDS011;16960;49.404;8.248;2024-02-26T07:29:30;2.30;;;1.50;;
30147;SDS011;16960;49.404;8.248;2024-02-26T07:31:59;2.20;;;1.83;;
30147;SDS011;16960;49.404;8.248;2024-02-26T07:34:26;1.90;;;1.63;;
30147;SDS011;16960;49.404;8.248;2024-02-26T07:36:54;1.60;;;1.50;;
30147;SDS011;16960;49.404;8.248;2024-02-26T07:39:21;2.07;;;1.73;;
30147;SDS011;16960;49.404;8.248;2024-02-26T07:41:48;1.63;;;1.53;;
30147;SDS011;16960;49.404;8.248;2024-02-26T07:44:17;2.43;;;1.57;;
30147;SDS011;16960;49.404;8.248;2024-02-26T07:46:44;2.10;;;1.90;;
30147;SDS011;16960;49.404;8.248;2024-02-26T07:49:13;1.60;;;1.50;;
30147;SDS011;16960;49.404;8.248;2024-02-26T07:51:40;1.50;;;1.40;;
30147;SDS011;16960;49.404;8.248;2024-02-26T07:54:07;2.37;;;1.60;;
30147;SDS011;16960;49.404;8.248;2024-02-26T07:56:34;2.10;;;1.90;;
30147;SDS011;16960;49.404;8.248;2024-02-26T07:59:01;1.93;;;1.67;;
30147;SDS011;16960;49.404;8.248;2024-02-26T08:01:27;3.10;;;1.40;;
30147;SDS011;16960;49.404;8.248;2024-02-26T08:03:54;1.53;;;1.40;;
30147;SDS011;16960;49.404;8.248;2024-02-26T08:06:23;4.93;;;1.80;;
30147;SDS011;16960;49.404;8.248;2024-02-26T08:08:50;1.70;;;1.50;;
30147;SDS011;16960;49.404;8.248;2024-02-26T08:11:18;1.60;;;1.50;;
30147;SDS011;16960;49.404;8.248;2024-02-26T08:13:45;1.53;;;1.40;;
30147;SDS011;16960;49.404;8.248;2024-02-26T08:16:11;1.60;;;1.50;;
30147;SDS011;16960;49.404;8.248;2024-02-26T08:18:38;1.73;;;1.30;;
30147;SDS011;16960;49.404;8.248;2024-02-26T08:21:05;2.30;;;1.77;;
30147;SDS011;16960;49.404;8.248;2024-02-26T08:23:35;1.87;;;1.40;;
30147;SDS011;16960;49.404;8.248;2024-02-26T08:26:02;1.70;;;1.50;;
30147;SDS011;16960;49.404;8.248;2024-02-26T08:28:32;1.93;;;1.67;;
30147;SDS011;16960;49.404;8.248;2024-02-26T08:30:59;1.97;;;1.77;;
30147;SDS011;16960;49.404;8.248;2024-02-26T08:33:26;1.50;;;1.40;;
30147;SDS011;16960;49.404;8.248;2024-02-26T08:35:52;1.47;;;1.37;;
30147;SDS011;16960;49.404;8.248;2024-02-26T08:38:19;2.03;;;1.83;;
30147;SDS011;16960;49.404;8.248;2024-02-26T08:40:48;2.03;;;1.80;;
30147;SDS011;16960;49.404;8.248;2024-02-26T08:43:15;1.43;;;1.33;;
30147;SDS011;16960;49.404;8.248;2024-02-26T08:45:42;1.50;;;1.40;;
30147;SDS011;16960;49.404;8.248;2024-02-26T08:48:09;1.43;;;1.33;;
30147;SDS011;16960;49.404;8.248;2024-02-26T08:50:36;1.80;;;1.60;;
30147;SDS011;16960;49.404;8.248;2024-02-26T08:53:03;1.47;;;1.37;;
30147;SDS011;16960;49.404;8.248;2024-02-26T08:55:30;0.93;;;0.93;;
30147;SDS011;16960;49.404;8.248;2024-02-26T08:57:59;1.70;;;1.13;;
30147;SDS011;16960;49.404;8.248;2024-02-26T09:00:26;1.30;;;1.20;;
30147;SDS011;16960;49.404;8.248;2024-02-26T09:02:53;1.50;;;1.30;;
30147;SDS011;16960;49.404;8.248;2024-02-26T09:05:20;3.50;;;1.50;;
30147;SDS011;16960;49.404;8.248;2024-02-26T09:07:46;1.00;;;0.90;;
30147;SDS011;16960;49.404;8.248;2024-02-26T09:10:13;2.43;;;1.20;;
30147;SDS011;16960;49.404;8.248;2024-02-26T09:12:40;0.90;;;0.90;;
30147;SDS011;16960;49.404;8.248;2024-02-26T09:15:09;1.37;;;1.27;;
30147;SDS011;16960;49.404;8.248;2024-02-26T09:17:36;1.40;;;1.30;;
30147;SDS011;16960;49.404;8.248;2024-02-26T09:20:04;1.40;;;1.30;;
30147;SDS011;16960;49.404;8.248;2024-02-26T09:22:34;1.40;;;1.30;;
30147;SDS011;16960;49.404;8.248;2024-02-26T09:25:03;1.20;;;1.10;;
30147;SDS011;16960;49.404;8.248;2024-02-26T09:27:31;1.87;;;1.40;;
30147;SDS011;16960;49.404;8.248;2024-02-26T09:29:58;1.47;;;1.37;;
30147;SDS011;16960;49.404;8.248;2024-02-26T09:32:26;2.83;;;1.60;;
30147;SDS011;16960;49.404;8.248;2024-02-26T09:34:53;1.17;;;1.07;;
30147;SDS011;16960;49.404;8.248;2024-02-26T09:37:20;1.40;;;1.30;;
30147;SDS011;16960;49.404;8.248;2024-02-26T09:39:47;1.20;;;1.10;;
30147;SDS011;16960;49.404;8.248;2024-02-26T09:42:14;2.27;;;1.43;;
30147;SDS011;16960;49.404;8.248;2024-02-26T09:44:45;1.57;;;1.37;;
30147;SDS011;16960;49.404;8.248;2024-02-26T09:47:15;1.10;;;1.00;;
30147;SDS011;16960;49.404;8.248;2024-02-26T09:49:44;1.33;;;1.00;;
30147;SDS011;16960;49.404;8.248;2024-02-26T09:52:12;1.90;;;1.63;;
30147;SDS011;16960;49.404;8.248;2024-02-26T09:54:41;3.20;;;1.63;;
30147;SDS011;16960;49.404;8.248;2024-02-26T09:57:13;1.80;;;1.30;;
30147;SDS011;16960;49.404;8.248;2024-02-26T09:59:42;1.37;;;1.23;;
30147;SDS011;16960;49.404;8.248;2024-02-26T10:02:11;1.20;;;1.10;;
30147;SDS011;16960;49.404;8.248;2024-02-26T10:04:39;1.30;;;1.20;;
30147;SDS011;16960;49.404;8.248;2024-02-26T10:07:09;1.50;;;1.40;;
30147;SDS011;16960;49.404;8.248;2024-02-26T10:09:37;2.40;;;1.17;;
30147;SDS011;16960;49.404;8.248;2024-02-26T10:12:05;1.70;;;1.20;;
30147;SDS011;16960;49.404;8.248;2024-02-26T10:14:35;1.40;;;1.30;;
30147;SDS011;16960;49.404;8.248;2024-02-26T10:17:02;1.60;;;1.50;;
30147;SDS011;16960;49.404;8.248;2024-02-26T10:19:33;1.30;;;1.00;;
30147;SDS011;16960;49.404;8.248;2024-02-26T10:22:00;0.90;;;0.90;;
30147;SDS011;16960;49.404;8.248;2024-02-26T10:24:31;1.20;;;1.10;;
30147;SDS011;16960;49.404;8.248;2024-02-26T10:26:57;2.10;;;1.13;;
30147;SDS011;16960;49.404;8.248;2024-02-26T10:29:26;1.40;;;1.30;;
30147;SDS011;16960;49.404;8.248;2024-02-26T10:31:53;2.90;;;1.23;;
30147;SDS011;16960;49.404;8.248;2024-02-26T10:34:20;1.13;;;0.80;;
30147;SDS011;16960;49.404;8.248;2024-02-26T10:36:47;1.53;;;1.43;;
30147;SDS011;16960;49.404;8.248;2024-02-26T10:39:15;1.50;;;1.40;;
30147;SDS011;16960;49.404;8.248;2024-02-26T10:41:43;1.60;;;1.30;;
30147;SDS011;16960;49.404;8.248;2024-02-26T10:44:11;1.43;;;1.33;;
30147;SDS011;16960;49.404;8.248;2024-02-26T10:46:38;1.50;;;1.40;;
30147;SDS011;16960;49.404;8.248;2024-02-26T10:49:12;1.20;;;1.10;;
30147;SDS011;16960;49.404;8.248;2024-02-26T10:51:40;1.30;;;1.20;;
30147;SDS011;16960;49.404;8.248;2024-02-26T10:54:12;1.20;;;1.10;;
30147;SDS011;16960;49.404;8.248;2024-02-26T10:56:41;1.43;;;1.33;;
30147;SDS011;16960;49.404;8.248;2024-02-26T10:59:12;1.40;;;1.20;;
30147;SDS011;16960;49.404;8.248;2024-02-26T11:01:40;1.87;;;1.40;;
30147;SDS011;16960;49.404;8.248;2024-02-26T11:04:11;1.23;;;1.13;;
30147;SDS011;16960;49.404;8.248;2024-02-26T11:06:39;2.40;;;1.30;;
30147;SDS011;16960;49.404;8.248;2024-02-26T11:09:06;1.10;;;1.00;;
30147;SDS011;16960;49.404;8.248;2024-02-26T11:11:38;1.33;;;0.90;;
30147;SDS011;16960;49.404;8.248;2024-02-26T11:14:08;1.50;;;0.90;;
30147;SDS011;16960;49.404;8.248;2024-02-26T11:16:35;1.13;;;1.03;;
30147;SDS011;16960;49.404;8.248;2024-02-26T11:19:04;1.30;;;1.03;;
30147;SDS011;16960;49.404;8.248;2024-02-26T11:21:34;1.93;;;1.33;;
30147;SDS011;16960;49.404;8.248;2024-02-26T11:24:06;1.93;;;1.30;;
30147;SDS011;16960;49.404;8.248;2024-02-26T11:26:36;1.17;;;1.03;;
30147;SDS011;16960;49.404;8.248;2024-02-26T11:29:12;1.03;;;0.93;;
30147;SDS011;16960;49.404;8.248;2024-02-26T11:31:42;1.23;;;1.10;;
30147;SDS011;16960;49.404;8.248;2024-02-26T11:34:09;1.53;;;1.43;;
30147;SDS011;16960;49.404;8.248;2024-02-26T11:36:38;1.83;;;1.00;;
30147;SDS011;16960;49.404;8.248;2024-02-26T11:39:04;2.43;;;1.20;;
30147;SDS011;16960;49.404;8.248;2024-02-26T11:41:32;1.00;;;0.90;;
30147;SDS011;16960;49.404;8.248;2024-02-26T11:44:00;0.87;;;0.80;;
30147;SDS011;16960;49.404;8.248;2024-02-26T11:46:31;0.83;;;0.83;;
30147;SDS011;16960;49.404;8.248;2024-02-26T11:48:59;1.47;;;1.03;;
30147;SDS011;16960;49.404;8.248;2024-02-26T11:51:27;2.17;;;1.20;;
30147;SDS011;16960;49.404;8.248;2024-02-26T11:53:58;1.20;;;1.10;;
30147;SDS011;16960;49.404;8.248;2024-02-26T11:56:25;0.77;;;0.77;;
30147;SDS011;16960;49.404;8.248;2024-02-26T11:58:57;0.80;;;0.80;;
30147;SDS011;16960;49.404;8.248;2024-02-26T12:01:43;1.20;;;1.10;;
30147;SDS011;16960;49.404;8.248;2024-02-26T12:04:13;1.40;;;1.10;;
30147;SDS011;16960;49.404;8.248;2024-02-26T12:06:44;1.63;;;1.30;;
30147;SDS011;16960;49.404;8.248;2024-02-26T12:09:12;1.00;;;0.90;;
30147;SDS011;16960;49.404;8.248;2024-02-26T12:11:39;1.07;;;0.90;;
30147;SDS011;16960;49.404;8.248;2024-02-26T12:14:07;1.40;;;1.27;;
30147;SDS011;16960;49.404;8.248;2024-02-26T12:16:35;1.07;;;0.97;;
30147;SDS011;16960;49.404;8.248;2024-02-26T12:19:05;1.00;;;0.90;;
30147;SDS011;16960;49.404;8.248;2024-02-26T12:21:33;1.30;;;1.20;;
30147;SDS011;16960;49.404;8.248;2024-02-26T12:24:11;1.23;;;1.10;;
30147;SDS011;16960;49.404;8.248;2024-02-26T12:26:40;1.53;;;1.23;;
30147;SDS011;16960;49.404;8.248;2024-02-26T12:29:07;2.13;;;1.00;;
30147;SDS011;16960;49.404;8.248;2024-02-26T12:31:36;3.73;;;1.03;;
30147;SDS011;16960;49.404;8.248;2024-02-26T12:34:05;1.50;;;1.10;;
30147;SDS011;16960;49.404;8.248;2024-02-26T12:36:34;1.30;;;1.13;;
30147;SDS011;16960;49.404;8.248;2024-02-26T12:39:01;1.17;;;0.97;;
30147;SDS011;16960;49.404;8.248;2024-02-26T12:41:30;1.20;;;1.03;;
30147;SDS011;16960;49.404;8.248;2024-02-26T12:43:58;1.00;;;0.73;;
30147;SDS011;16960;49.404;8.248;2024-02-26T12:46:25;0.80;;;0.80;;
30147;SDS011;16960;49.404;8.248;2024-02-26T12:48:52;0.90;;;0.90;;
30147;SDS011;16960;49.404;8.248;2024-02-26T12:51:24;1.60;;;1.13;;
30147;SDS011;16960;49.404;8.248;2024-02-26T12:53:52;1.20;;;1.10;;
30147;SDS011;16960;49.404;8.248;2024-02-26T12:56:20;1.30;;;1.03;;
30147;SDS011;16960;49.404;8.248;2024-02-26T12:58:48;1.13;;;0.93;;
30147;SDS011;16960;49.404;8.248;2024-02-26T13:01:18;1.00;;;0.87;;
30147;SDS011;16960;49.404;8.248;2024-02-26T13:03:50;0.67;;;0.57;;
30147;SDS011;16960;49.404;8.248;2024-02-26T13:06:19;1.20;;;1.10;;
30147;SDS011;16960;49.404;8.248;2024-02-26T13:08:48;1.50;;;0.90;;
30147;SDS011;16960;49.404;8.248;2024-02-26T13:11:15;1.00;;;0.90;;
30147;SDS011;16960;49.404;8.248;2024-02-26T13:13:47;1.20;;;0.90;;
30147;SDS011;16960;49.404;8.248;2024-02-26T13:16:14;0.80;;;0.80;;
30147;SDS011;16960;49.404;8.248;2024-02-26T13:18:42;1.10;;;0.80;;
30147;SDS011;16960;49.404;8.248;2024-02-26T13:21:10;1.10;;;0.90;;
30147;SDS011;16960;49.404;8.248;2024-02-26T13:23:38;1.20;;;1.10;;
30147;SDS011;16960;49.404;8.248;2024-02-26T13:26:08;0.80;;;0.70;;
30147;SDS011;16960;49.404;8.248;2024-02-26T13:28:37;1.10;;;0.97;;
30147;SDS011;16960;49.404;8.248;2024-02-26T13:31:04;0.93;;;0.70;;
30147;SDS011;16960;49.404;8.248;2024-02-26T13:33:33;1.03;;;0.90;;
30147;SDS011;16960;49.404;8.248;2024-02-26T13:36:00;0.80;;;0.80;;
30147;SDS011;16960;49.404;8.248;2024-02-26T13:38:27;1.60;;;1.20;;
30147;SDS011;16960;49.404;8.248;2024-02-26T13:40:54;1.17;;;1.07;;
30147;SDS011;16960;49.404;8.248;2024-02-26T13:43:23;1.00;;;0.90;;
30147;SDS011;16960;49.404;8.248;2024-02-26T13:45:50;1.03;;;0.90;;
30147;SDS011;16960;49.404;8.248;2024-02-26T13:48:17;2.23;;;1.27;;
30147;SDS011;16960;49.404;8.248;2024-02-26T13:50:44;1.20;;;1.10;;
30147;SDS011;16960;49.404;8.248;2024-02-26T13:53:11;1.40;;;1.30;;
30147;SDS011;16960;49.404;8.248;2024-02-26T13:55:39;0.90;;;0.77;;
30147;SDS011;16960;49.404;8.248;2024-02-26T13:58:07;1.73;;;1.30;;
30147;SDS011;16960;49.404;8.248;2024-02-26T14:00:38;1.10;;;1.00;;
30147;SDS011;16960;49.404;8.248;2024-02-26T14:03:06;0.70;;;0.67;;
30147;SDS011;16960;49.404;8.248;2024-02-26T14:05:34;0.73;;;0.73;;
30147;SDS011;16960;49.404;8.248;2024-02-26T14:08:01;0.70;;;0.60;;
30147;SDS011;16960;49.404;8.248;2024-02-26T14:10:28;0.60;;;0.60;;
30147;SDS011;16960;49.404;8.248;2024-02-26T14:12:55;0.80;;;0.80;;
30147;SDS011;16960;49.404;8.248;2024-02-26T14:15:22;1.00;;;0.90;;
30147;SDS011;16960;49.404;8.248;2024-02-26T14:17:51;0.80;;;0.80;;
30147;SDS011;16960;49.404;8.248;2024-02-26T14:20:21;1.00;;;0.73;;
30147;SDS011;16960;49.404;8.248;2024-02-26T14:22:48;2.23;;;1.30;;
30147;SDS011;16960;49.404;8.248;2024-02-26T14:25:14;1.00;;;0.80;;
30147;SDS011;16960;49.404;8.248;2024-02-26T14:27:41;1.10;;;1.00;;
30147;SDS011;16960;49.404;8.248;2024-02-26T14:30:08;1.10;;;1.00;;
30147;SDS011;16960;49.404;8.248;2024-02-26T14:32:35;0.60;;;0.60;;
30147;SDS011;16960;49.404;8.248;2024-02-26T14:35:05;0.80;;;0.80;;
30147;SDS011;16960;49.404;8.248;2024-02-26T14:37:34;1.03;;;0.93;;
30147;SDS011;16960;49.404;8.248;2024-02-26T14:40:01;1.07;;;0.83;;
30147;SDS011;16960;49.404;8.248;2024-02-26T14:42:28;0.63;;;0.57;;
30147;SDS011;16960;49.404;8.248;2024-02-26T14:44:55;1.23;;;1.13;;
30147;SDS011;16960;49.404;8.248;2024-02-26T14:47:22;0.80;;;0.80;;
30147;SDS011;16960;49.404;8.248;2024-02-26T14:49:49;0.80;;;0.80;;
30147;SDS011;16960;49.404;8.248;2024-02-26T14:52:18;1.20;;;0.97;;